createdAt,value
2024-01-14T00:00:03.348Z,85.71
2024-01-14T00:02:39.744Z,86.04
2024-01-14T00:05:10.272Z,86.01
2024-01-14T00:07:41.375Z,85.62
2024-01-14T00:10:11.735Z,85.65
2024-01-14T00:12:43.859Z,89.51
2024-01-14T00:15:14.015Z,88.46
2024-01-14T00:17:43.694Z,87.10
2024-01-14T00:20:14.220Z,86.81
2024-01-14T00:22:43.681Z,85.75
2024-01-14T00:25:14.184Z,85.88
2024-01-14T00:27:46.410Z,86.55
2024-01-14T00:30:16.278Z,86.46
2024-01-14T00:32:45.884Z,86.66
2024-01-14T00:35:15.720Z,86.83
2024-01-14T00:37:45.338Z,86.15
2024-01-14T00:40:15.519Z,86.66
2024-01-14T00:42:47.604Z,86.69
2024-01-14T00:45:17.215Z,87.12
2024-01-14T00:47:46.796Z,86.77
2024-01-14T00:50:16.431Z,86.40
2024-01-14T00:52:45.987Z,86.36
2024-01-14T00:55:15.575Z,86.23
2024-01-14T00:57:48.511Z,86.00
2024-01-14T01:00:18.998Z,86.26
2024-01-14T01:02:48.747Z,86.93
2024-01-14T01:05:18.537Z,86.56
2024-01-14T01:07:48.041Z,86.23
2024-01-14T01:10:18.114Z,86.31
2024-01-14T01:12:50.192Z,86.21
2024-01-14T01:15:19.768Z,86.34
2024-01-14T01:17:49.447Z,86.40
2024-01-14T01:20:19.164Z,86.38
2024-01-14T01:22:50.070Z,86.58
2024-01-14T01:25:19.666Z,86.09
2024-01-14T01:27:51.747Z,86.40
2024-01-14T01:30:21.501Z,86.03
2024-01-14T01:32:51.232Z,86.42
2024-01-14T01:35:20.933Z,86.16
2024-01-14T01:37:50.524Z,86.19
2024-01-14T01:40:20.109Z,86.43
2024-01-14T01:42:53.677Z,87.04
2024-01-14T01:45:23.169Z,87.47
2024-01-14T01:47:53.115Z,87.13
2024-01-14T01:50:22.768Z,87.22
2024-01-14T01:52:52.692Z,87.52
2024-01-14T01:55:22.574Z,88.07
2024-01-14T01:57:55.802Z,88.07
2024-01-14T02:00:25.779Z,87.98
2024-01-14T02:02:55.462Z,88.38
2024-01-14T02:05:25.985Z,88.77
2024-01-14T02:07:55.717Z,89.08
2024-01-14T02:10:25.612Z,88.46
2024-01-14T02:12:59.774Z,88.52
2024-01-14T02:15:29.289Z,88.49
2024-01-14T02:17:59.020Z,88.73
2024-01-14T02:20:28.600Z,88.34
2024-01-14T02:22:59.212Z,88.62
2024-01-14T02:25:32.678Z,88.31
2024-01-14T02:28:02.256Z,88.30
2024-01-14T02:30:33.783Z,88.15
2024-01-14T02:33:03.442Z,87.97
2024-01-14T02:35:33.054Z,88.03
2024-01-14T02:38:02.618Z,87.68
2024-01-14T02:40:35.700Z,87.96
2024-01-14T02:43:05.577Z,88.31
2024-01-14T02:45:35.700Z,88.40
2024-01-14T02:48:05.437Z,88.26
2024-01-14T02:50:34.985Z,88.09
2024-01-14T02:53:04.501Z,87.82
2024-01-14T02:55:36.624Z,87.78
2024-01-14T02:58:06.344Z,88.19
2024-01-14T03:00:35.904Z,88.31
2024-01-14T03:03:05.556Z,88.51
2024-01-14T03:05:35.172Z,88.28
2024-01-14T03:10:49.292Z,88.66
2024-01-14T03:16:00.905Z,89.03
2024-01-14T03:18:36.827Z,89.07
2024-01-14T03:21:06.670Z,89.38
2024-01-14T03:23:36.195Z,88.76
2024-01-14T03:26:08.387Z,88.65
2024-01-14T03:28:37.895Z,88.96
2024-01-14T03:31:09.098Z,89.27
2024-01-14T03:33:38.743Z,89.59
2024-01-14T03:36:09.730Z,89.90
2024-01-14T03:38:39.293Z,89.73
2024-01-14T03:41:11.978Z,89.09
2024-01-14T03:43:41.597Z,88.36
2024-01-14T03:46:11.583Z,88.27
2024-01-14T03:48:41.263Z,88.35
2024-01-14T03:51:11.073Z,88.14
2024-01-14T03:53:40.602Z,88.63
2024-01-14T03:56:12.816Z,88.47
2024-01-14T03:58:42.348Z,88.23
2024-01-14T04:01:19.033Z,88.07
2024-01-14T04:03:49.704Z,88.09
2024-01-14T04:06:23.956Z,88.61
2024-01-14T04:08:53.657Z,89.52
2024-01-14T04:11:25.990Z,89.30
2024-01-14T04:13:55.524Z,89.39
2024-01-14T04:16:25.533Z,89.63
2024-01-14T04:18:55.098Z,88.82
2024-01-14T04:21:25.615Z,88.96
2024-01-14T04:23:55.099Z,88.70
2024-01-14T04:26:27.266Z,88.65
2024-01-14T04:28:56.724Z,89.04
2024-01-14T04:31:26.346Z,89.16
2024-01-14T04:33:56.916Z,88.57
2024-01-14T04:36:26.770Z,88.65
2024-01-14T04:38:56.304Z,88.83
2024-01-14T04:41:28.428Z,89.45
2024-01-14T04:43:57.921Z,89.55
2024-01-14T04:46:27.542Z,88.49
2024-01-14T04:48:57.241Z,87.86
2024-01-14T04:51:26.868Z,88.26
2024-01-14T04:53:56.387Z,87.81
2024-01-14T04:56:28.532Z,87.96
2024-01-14T04:58:58.130Z,88.33
2024-01-14T05:01:27.660Z,87.82
2024-01-14T05:03:57.614Z,87.82
2024-01-14T05:06:27.210Z,87.55
2024-01-14T05:08:56.736Z,86.66
2024-01-14T05:11:28.827Z,86.33
2024-01-14T05:13:58.970Z,87.07
2024-01-14T05:16:28.954Z,87.03
2024-01-14T05:18:58.632Z,87.94
2024-01-14T05:21:28.390Z,86.86
2024-01-14T05:23:58.058Z,87.11
2024-01-14T05:26:30.355Z,87.21
2024-01-14T05:29:01.514Z,87.16
2024-01-14T05:31:32.239Z,87.56
2024-01-14T05:34:01.914Z,86.68
2024-01-14T05:36:31.448Z,87.13
2024-01-14T05:38:58.440Z,87.41
2024-01-14T05:41:30.526Z,87.28
2024-01-14T05:44:00.001Z,87.01
2024-01-14T05:46:29.698Z,86.46
2024-01-14T05:48:59.253Z,86.78
2024-01-14T05:51:28.925Z,86.40
2024-01-14T05:53:58.565Z,86.27
2024-01-14T05:56:31.362Z,86.96
2024-01-14T05:59:01.773Z,86.97
2024-01-14T06:01:31.492Z,86.83
2024-01-14T06:04:01.042Z,86.46
2024-01-14T06:06:30.657Z,86.24
2024-01-14T06:09:00.387Z,86.48
2024-01-14T06:11:32.555Z,86.11
2024-01-14T06:14:02.071Z,86.04
2024-01-14T06:16:31.582Z,86.58
2024-01-14T06:19:01.248Z,86.09
2024-01-14T06:21:30.880Z,86.20
2024-01-14T06:24:00.731Z,86.49
2024-01-14T06:26:32.853Z,86.30
2024-01-14T06:29:02.408Z,85.96
2024-01-14T06:31:31.993Z,85.33
2024-01-14T06:34:01.644Z,85.81
2024-01-14T06:36:31.462Z,85.15
2024-01-14T06:39:01.097Z,85.21
2024-01-14T06:41:33.208Z,85.40
2024-01-14T06:44:02.755Z,84.58
2024-01-14T06:46:32.306Z,85.21
2024-01-14T06:49:02.054Z,85.66
2024-01-14T06:51:31.713Z,85.77
2024-01-14T06:54:01.227Z,85.71
2024-01-14T06:56:34.030Z,85.35
2024-01-14T06:59:03.332Z,85.66
2024-01-14T07:01:32.793Z,85.25
2024-01-14T07:04:02.388Z,85.39
2024-01-14T07:06:31.900Z,85.15
2024-01-14T07:09:01.448Z,84.49
2024-01-14T07:11:33.727Z,84.78
2024-01-14T07:14:03.287Z,84.79
2024-01-14T07:16:32.811Z,85.51
2024-01-14T07:19:02.755Z,85.30
2024-01-14T07:21:32.907Z,85.56
2024-01-14T07:24:02.612Z,85.46
2024-01-14T07:26:34.708Z,84.34
2024-01-14T07:29:04.550Z,84.86
2024-01-14T07:31:34.464Z,84.63
2024-01-14T07:34:05.044Z,84.78
2024-01-14T07:36:34.689Z,84.34
2024-01-14T07:39:06.133Z,85.16
2024-01-14T07:41:38.270Z,85.42
2024-01-14T07:44:09.170Z,85.18
2024-01-14T07:46:38.680Z,85.46
2024-01-14T07:49:08.259Z,85.30
2024-01-14T07:51:37.758Z,84.85
2024-01-14T07:54:07.299Z,85.33
2024-01-14T07:56:39.367Z,85.33
2024-01-14T07:59:08.870Z,85.11
2024-01-14T08:01:38.694Z,85.41
2024-01-14T08:04:09.316Z,85.13
2024-01-14T08:06:38.960Z,85.68
2024-01-14T08:09:10.943Z,85.36
2024-01-14T08:11:43.052Z,84.74
2024-01-14T08:14:12.553Z,84.90
2024-01-14T08:16:42.046Z,84.60
2024-01-14T08:19:11.744Z,84.61
2024-01-14T08:21:45.660Z,84.54
2024-01-14T08:24:15.284Z,84.30
2024-01-14T08:26:51.043Z,84.21
2024-01-14T08:29:25.312Z,84.75
2024-01-14T08:31:56.204Z,84.57
2024-01-14T08:34:25.986Z,84.44
2024-01-14T08:36:55.481Z,84.80
2024-01-14T08:39:24.991Z,84.66
2024-01-14T08:41:57.900Z,84.17
2024-01-14T08:44:30.038Z,84.36
2024-01-14T08:47:00.588Z,83.68
2024-01-14T08:49:31.587Z,84.14
2024-01-14T08:52:02.931Z,83.95
2024-01-14T08:54:34.079Z,83.83
2024-01-14T08:57:07.009Z,84.48
2024-01-14T08:59:36.725Z,84.84
2024-01-14T09:02:06.217Z,83.96
2024-01-14T09:04:35.812Z,84.02
2024-01-14T09:09:43.062Z,83.54
2024-01-14T09:12:15.238Z,84.26
2024-01-14T09:14:44.737Z,84.42
2024-01-14T09:17:14.606Z,83.57
2024-01-14T09:19:44.533Z,83.55
2024-01-14T09:22:14.189Z,84.16
2024-01-14T09:24:46.757Z,83.80
2024-01-14T09:27:19.115Z,83.86
2024-01-14T09:29:48.731Z,84.02
2024-01-14T09:32:18.279Z,82.79
2024-01-14T09:34:47.786Z,83.11
2024-01-14T09:37:17.333Z,82.81
2024-01-14T09:39:46.911Z,83.03
2024-01-14T09:42:25.353Z,82.44
2024-01-14T09:45:02.886Z,82.61
2024-01-14T09:47:32.727Z,82.58
2024-01-14T09:50:04.637Z,82.73
2024-01-14T09:52:34.711Z,82.57
2024-01-14T09:55:04.991Z,82.42
2024-01-14T09:57:38.330Z,82.63
2024-01-14T10:00:10.397Z,81.76
2024-01-14T10:02:39.980Z,81.59
2024-01-14T10:05:11.147Z,81.70
2024-01-14T10:07:42.703Z,81.41
2024-01-14T10:10:12.714Z,81.09
2024-01-14T10:15:15.625Z,81.48
2024-01-14T10:17:48.920Z,82.20
2024-01-14T10:20:18.468Z,81.96
2024-01-14T10:22:50.159Z,82.46
2024-01-14T10:25:21.450Z,81.58
2024-01-14T10:27:53.716Z,81.91
2024-01-14T10:30:24.582Z,81.19
2024-01-14T10:33:18.480Z,81.40
2024-01-14T10:35:43.892Z,81.15
2024-01-14T10:38:13.476Z,81.40
2024-01-14T10:40:43.330Z,80.60
2024-01-14T10:43:15.560Z,81.14
2024-01-14T10:45:45.267Z,81.12
2024-01-14T10:48:15.468Z,80.89
2024-01-14T10:50:48.796Z,81.42
2024-01-14T10:53:24.491Z,80.62
2024-01-14T10:56:00.397Z,80.94
2024-01-14T10:58:37.732Z,80.65
2024-01-14T11:01:11.224Z,80.47
2024-01-14T11:03:44.231Z,79.90
2024-01-14T11:06:19.896Z,80.27
2024-01-14T11:08:49.692Z,80.99
2024-01-14T11:11:21.383Z,81.00
2024-01-14T11:13:58.851Z,81.44
2024-01-14T11:16:36.833Z,81.44
2024-01-14T11:19:21.305Z,81.83
2024-01-14T11:22:26.876Z,82.28
2024-01-14T11:25:03.392Z,82.39
2024-01-14T11:27:33.438Z,82.99
2024-01-14T11:30:06.046Z,83.40
2024-01-14T11:32:35.829Z,83.33
2024-01-14T11:35:06.590Z,82.69
2024-01-14T11:37:46.713Z,83.34
2024-01-14T11:40:30.718Z,82.27
2024-01-14T11:43:08.985Z,82.82
2024-01-14T11:45:42.296Z,82.80
2024-01-14T11:48:14.995Z,82.41
2024-01-14T11:50:44.947Z,81.94
2024-01-14T11:53:14.708Z,81.85
2024-01-14T11:55:47.346Z,81.43
2024-01-14T11:58:21.238Z,81.90
2024-01-14T12:00:55.616Z,81.18
2024-01-14T12:03:25.300Z,80.82
2024-01-14T12:05:56.291Z,81.28
2024-01-14T12:08:25.937Z,81.13
2024-01-14T12:10:55.459Z,81.52
2024-01-14T12:13:24.929Z,80.71
2024-01-14T12:16:01.539Z,80.88
2024-01-14T12:18:46.097Z,80.75
2024-01-14T12:21:26.931Z,81.17
2024-01-14T12:24:02.313Z,81.06
2024-01-14T12:26:31.858Z,80.91
2024-01-14T12:29:01.752Z,80.17
2024-01-14T12:31:49.524Z,80.29
2024-01-14T12:34:26.473Z,80.25
2024-01-14T12:36:56.270Z,79.89
2024-01-14T12:39:28.285Z,80.46
2024-01-14T12:41:58.133Z,80.21
2024-01-14T12:44:28.719Z,80.13
2024-01-14T12:47:10.182Z,80.54
2024-01-14T12:49:40.661Z,80.08
2024-01-14T12:52:11.665Z,79.52
2024-01-14T12:54:41.536Z,79.96
2024-01-14T12:57:17.550Z,79.53
2024-01-14T12:59:53.063Z,79.47
2024-01-14T13:02:25.263Z,79.56
2024-01-14T13:04:56.453Z,80.03
2024-01-14T13:07:27.349Z,79.76
2024-01-14T13:09:58.534Z,79.58
2024-01-14T13:12:28.071Z,80.15
2024-01-14T13:14:57.902Z,79.66
2024-01-14T13:17:30.057Z,78.96
2024-01-14T13:19:59.790Z,78.96
2024-01-14T13:22:29.383Z,79.12
2024-01-14T13:24:58.940Z,79.05
2024-01-14T13:27:28.510Z,78.89
2024-01-14T13:29:58.041Z,78.61
2024-01-14T13:32:31.898Z,78.84
2024-01-14T13:35:02.050Z,79.38
2024-01-14T13:37:31.584Z,79.85
2024-01-14T13:40:01.041Z,79.62
2024-01-14T13:42:31.121Z,79.91
2024-01-14T13:45:01.144Z,79.48
2024-01-14T13:47:33.435Z,80.12
2024-01-14T13:50:03.450Z,79.67
2024-01-14T13:52:33.571Z,79.46
2024-01-14T13:55:03.568Z,79.35
2024-01-14T13:57:33.184Z,78.58
2024-01-14T14:00:02.796Z,78.35
2024-01-14T14:02:37.264Z,79.50
2024-01-14T14:05:09.981Z,79.32
2024-01-14T14:07:41.287Z,78.97
2024-01-14T14:10:12.703Z,78.73
2024-01-14T14:12:42.277Z,78.51
2024-01-14T14:15:12.666Z,77.77
2024-01-14T14:17:48.965Z,78.60
2024-01-14T14:20:20.789Z,80.58
2024-01-14T14:22:50.521Z,79.78
2024-01-14T14:25:20.288Z,79.33
2024-01-14T14:27:49.845Z,78.22
2024-01-14T14:30:24.395Z,77.97
2024-01-14T14:32:57.093Z,77.26
2024-01-14T14:35:26.545Z,77.64
2024-01-14T14:37:56.053Z,77.92
2024-01-14T14:40:25.620Z,77.91
2024-01-14T14:42:55.061Z,77.99
2024-01-14T14:45:24.597Z,77.98
2024-01-14T14:47:56.800Z,77.86
2024-01-14T14:50:26.392Z,78.28
2024-01-14T14:52:55.894Z,78.52
2024-01-14T14:55:25.362Z,78.89
2024-01-14T14:57:54.857Z,78.69
2024-01-14T15:00:24.508Z,79.13
2024-01-14T15:02:59.587Z,78.98
2024-01-14T15:05:29.151Z,79.02
2024-01-14T15:07:58.643Z,79.47
2024-01-14T15:10:28.155Z,79.44
2024-01-14T15:12:57.653Z,79.96
2024-01-14T15:15:30.123Z,79.49
2024-01-14T15:18:02.388Z,79.61
2024-01-14T15:20:31.999Z,79.51
2024-01-14T15:23:02.439Z,79.61
2024-01-14T15:25:31.918Z,79.84
2024-01-14T15:28:01.506Z,79.64
2024-01-14T15:30:31.042Z,79.31
2024-01-14T15:33:03.314Z,79.72
2024-01-14T15:35:33.135Z,79.34
2024-01-14T15:38:02.820Z,79.45
2024-01-14T15:40:32.705Z,79.92
2024-01-14T15:43:02.650Z,79.80
2024-01-14T15:45:32.350Z,80.19
2024-01-14T15:48:06.596Z,80.18
2024-01-14T15:50:36.162Z,79.97
2024-01-14T15:53:05.685Z,79.85
2024-01-14T15:55:35.153Z,79.64
2024-01-14T15:58:04.684Z,80.12
2024-01-14T16:00:34.344Z,79.66
2024-01-14T16:03:07.303Z,79.10
2024-01-14T16:05:37.202Z,79.77
2024-01-14T16:08:07.398Z,78.89
2024-01-14T16:10:36.893Z,78.90
2024-01-14T16:13:06.713Z,78.83
2024-01-14T16:15:36.235Z,78.95
2024-01-14T16:18:08.957Z,79.53
2024-01-14T16:20:38.329Z,79.40
2024-01-14T16:23:07.915Z,79.20
2024-01-14T16:25:38.349Z,79.16
2024-01-14T16:28:09.768Z,78.56
2024-01-14T16:30:39.368Z,78.71
2024-01-14T16:33:12.756Z,78.34
2024-01-14T16:35:51.477Z,78.54
2024-01-14T16:38:24.417Z,78.63
2024-01-14T16:41:02.961Z,78.36
2024-01-14T16:43:35.274Z,78.26
2024-01-14T16:46:05.430Z,78.26
2024-01-14T16:48:38.352Z,78.29
2024-01-14T16:51:11.709Z,77.78
2024-01-14T16:53:43.856Z,77.59
2024-01-14T16:56:16.221Z,77.72
2024-01-14T16:58:46.865Z,77.70
2024-01-14T17:01:19.150Z,76.79
2024-01-14T17:03:52.749Z,77.69
2024-01-14T17:06:22.510Z,77.65
2024-01-14T17:08:52.832Z,77.50
2024-01-14T17:11:23.718Z,77.33
2024-01-14T17:13:53.680Z,77.63
2024-01-14T17:16:25.240Z,78.42
2024-01-14T17:19:01.031Z,78.88
2024-01-14T17:21:31.207Z,78.29
2024-01-14T17:24:00.940Z,78.80
2024-01-14T17:26:30.651Z,78.67
2024-01-14T17:29:00.254Z,78.13
2024-01-14T17:31:29.820Z,78.20
2024-01-14T17:34:01.980Z,77.72
2024-01-14T17:36:31.739Z,77.65
2024-01-14T17:39:02.883Z,77.70
2024-01-14T17:41:32.441Z,77.52
2024-01-14T17:44:02.912Z,77.05
2024-01-14T17:46:32.996Z,77.37
2024-01-14T17:49:05.909Z,77.43
2024-01-14T17:51:36.079Z,77.73
2024-01-14T17:54:05.639Z,78.05
2024-01-14T17:56:35.132Z,77.75
2024-01-14T17:59:06.518Z,77.80
2024-01-14T18:01:36.128Z,77.88
2024-01-14T18:04:08.279Z,78.13
2024-01-14T18:06:37.917Z,78.52
2024-01-14T18:09:08.233Z,78.13
2024-01-14T18:11:37.735Z,78.27
2024-01-14T18:14:07.239Z,78.23
2024-01-14T18:16:36.749Z,78.23
2024-01-14T18:19:08.900Z,78.11
2024-01-14T18:21:38.569Z,77.75
2024-01-14T18:24:09.335Z,77.72
2024-01-14T18:26:39.603Z,77.55
2024-01-14T18:29:09.139Z,77.61
2024-01-14T18:31:39.039Z,77.76
2024-01-14T18:34:11.358Z,77.89
2024-01-14T18:36:41.087Z,78.33
2024-01-14T18:39:10.707Z,77.63
2024-01-14T18:41:40.386Z,77.29
2024-01-14T18:44:09.976Z,77.63
2024-01-14T18:46:39.712Z,77.65
2024-01-14T18:49:12.521Z,77.65
2024-01-14T18:51:44.080Z,78.02
2024-01-14T18:54:14.389Z,77.89
2024-01-14T18:56:44.824Z,78.06
2024-01-14T18:59:15.677Z,77.58
2024-01-14T19:01:45.178Z,78.02
2024-01-14T19:04:17.836Z,77.48
2024-01-14T19:06:47.797Z,78.08
2024-01-14T19:09:17.443Z,78.40
2024-01-14T19:11:46.935Z,78.71
2024-01-14T19:14:16.438Z,78.57
2024-01-14T19:16:46.721Z,78.48
2024-01-14T19:19:21.365Z,78.51
2024-01-14T19:21:52.588Z,77.97
2024-01-14T19:24:22.125Z,77.69
2024-01-14T19:26:51.749Z,77.86
2024-01-14T19:29:22.117Z,77.54
2024-01-14T19:31:52.391Z,76.94
2024-01-14T19:34:24.949Z,77.18
2024-01-14T19:36:54.558Z,76.97
2024-01-14T19:39:26.172Z,77.15
2024-01-14T19:41:55.913Z,77.70
2024-01-14T19:44:25.414Z,77.88
2024-01-14T19:46:55.122Z,77.64
2024-01-14T19:49:27.424Z,77.92
2024-01-14T19:51:57.006Z,77.35
2024-01-14T19:54:27.358Z,77.60
2024-01-14T19:56:57.127Z,77.42
2024-01-14T19:59:26.627Z,77.38
2024-01-14T20:01:56.124Z,77.28
2024-01-14T20:04:28.331Z,77.19
2024-01-14T20:06:57.895Z,76.80
2024-01-14T20:09:27.706Z,76.93
2024-01-14T20:12:01.141Z,76.99
2024-01-14T20:14:31.025Z,76.82
2024-01-14T20:17:00.686Z,76.83
2024-01-14T20:19:32.848Z,75.98
2024-01-14T20:22:02.469Z,75.71
2024-01-14T20:24:35.777Z,75.25
2024-01-14T20:27:05.465Z,75.59
2024-01-14T20:29:34.984Z,76.16
2024-01-14T20:32:05.130Z,75.65
2024-01-14T20:34:37.762Z,75.36
2024-01-14T20:37:07.410Z,75.56
2024-01-14T20:39:37.029Z,75.25
2024-01-14T20:42:08.983Z,74.98
2024-01-14T20:44:39.027Z,74.65
2024-01-14T20:47:09.753Z,75.42
2024-01-14T20:49:43.334Z,75.23
2024-01-14T20:52:13.591Z,74.61
2024-01-14T20:54:43.261Z,75.30
2024-01-14T20:57:13.304Z,74.87
2024-01-14T20:59:43.393Z,75.57
2024-01-14T21:02:12.902Z,75.04
2024-01-14T21:04:44.981Z,75.25
2024-01-14T21:07:14.844Z,74.74
2024-01-14T21:09:47.022Z,74.33
2024-01-14T21:12:16.657Z,73.85
2024-01-14T21:14:46.285Z,73.84
2024-01-14T21:17:15.786Z,73.96
2024-01-14T21:19:48.055Z,73.93
2024-01-14T21:22:18.198Z,74.19
2024-01-14T21:24:47.721Z,74.30
2024-01-14T21:27:17.365Z,74.78
2024-01-14T21:29:46.913Z,74.33
2024-01-14T21:32:16.592Z,74.24
2024-01-14T21:34:48.734Z,74.08
2024-01-14T21:37:18.842Z,74.30
2024-01-14T21:39:48.403Z,74.03
2024-01-14T21:42:18.022Z,74.35
2024-01-14T21:44:49.912Z,74.61
2024-01-14T21:47:19.354Z,74.34
2024-01-14T21:49:52.297Z,74.62
2024-01-14T21:52:22.185Z,74.44
2024-01-14T21:54:51.658Z,73.83
2024-01-14T21:57:21.746Z,74.25
2024-01-14T21:59:51.239Z,74.74
2024-01-14T22:02:20.869Z,75.12
2024-01-14T22:04:53.035Z,74.41
2024-01-14T22:07:22.595Z,74.56
2024-01-14T22:09:52.199Z,74.30
2024-01-14T22:12:21.726Z,74.41
2024-01-14T22:14:51.216Z,75.00
2024-01-14T22:17:20.701Z,75.30
2024-01-14T22:19:52.947Z,75.00
2024-01-14T22:22:22.895Z,75.73
2024-01-14T22:24:52.631Z,75.62
2024-01-14T22:27:22.515Z,75.89
2024-01-14T22:29:53.012Z,76.03
2024-01-14T22:32:23.851Z,76.26
2024-01-14T22:34:56.016Z,77.18
2024-01-14T22:37:26.866Z,78.33
2024-01-14T22:39:56.585Z,78.51
2024-01-14T22:42:26.059Z,78.29
2024-01-14T22:44:55.564Z,78.09
2024-01-14T22:47:25.750Z,79.18
2024-01-14T22:49:57.889Z,77.90
2024-01-14T22:52:27.495Z,78.33
2024-01-14T22:54:57.097Z,78.49
2024-01-14T22:57:26.644Z,78.53
2024-01-14T22:59:56.212Z,78.89
2024-01-14T23:02:25.679Z,78.36
2024-01-14T23:04:58.081Z,78.76
2024-01-14T23:07:27.852Z,78.84
2024-01-14T23:09:57.364Z,78.92
2024-01-14T23:12:26.938Z,78.72
2024-01-14T23:14:56.477Z,78.19
2024-01-14T23:17:26.270Z,79.02
2024-01-14T23:19:58.377Z,78.89
2024-01-14T23:22:28.079Z,79.24
2024-01-14T23:24:57.584Z,80.07
2024-01-14T23:27:27.252Z,80.10
2024-01-14T23:29:56.771Z,79.63
2024-01-14T23:32:27.033Z,79.24
2024-01-14T23:34:59.349Z,79.44
2024-01-14T23:37:28.968Z,79.18
2024-01-14T23:39:58.491Z,79.15
2024-01-14T23:42:28.046Z,79.04
2024-01-14T23:44:57.598Z,79.87
2024-01-14T23:47:27.167Z,79.95
2024-01-14T23:49:59.511Z,80.10
2024-01-14T23:52:29.171Z,80.00
2024-01-14T23:54:58.770Z,80.50
2024-01-14T23:57:25.777Z,80.29
2024-01-14T23:59:55.326Z,80.23
